Airport View

Enter AWOS ICAO identifier for current METAR.

ex. KFNL

KUCP 300322Z AUTO 35005KT 10SM BKN010 BKN025 OVC037 07/07 A2976 RMK AO2 CIG 006V014 PWINO PNO $

30 Oct 2020 03:56

Frequency: 124.175

Phone: (724) 652-4184

Other Area AWOS: KBVI - KPJC - KYNG - KBTP

TAF KBVI 292322Z 3000/3024 03010KT 5SM -RA BR OVC006 FM301000 33007KT P6SM BKN025 FM302300 33010KT P6SM BKN035